createdAt,value
2023-12-01T00:02:34.388Z,38.80
2023-12-01T00:06:20.827Z,38.20
2023-12-01T00:10:07.033Z,43.20
2023-12-01T00:13:39.561Z,42.70
2023-12-01T00:17:19.058Z,37.50
2023-12-01T00:21:05.436Z,48.60
2023-12-01T00:24:34.647Z,44.00
2023-12-01T00:28:04.636Z,50.30
2023-12-01T00:31:50.759Z,50.60
2023-12-01T00:35:18.485Z,46.60
2023-12-01T00:38:35.195Z,50.50
2023-12-01T00:42:21.417Z,55.90
2023-12-01T00:46:20.560Z,50.00
2023-12-01T00:50:06.625Z,59.70
2023-12-01T00:53:53.227Z,49.60
2023-12-01T00:57:39.718Z,54.90
2023-12-01T01:01:29.001Z,51.00
2023-12-01T01:05:15.283Z,57.10
2023-12-01T01:08:44.101Z,59.30
2023-12-01T01:12:28.842Z,58.30
2023-12-01T01:16:10.550Z,60.30
2023-12-01T01:19:56.884Z,54.70
2023-12-01T01:23:43.590Z,56.80
2023-12-01T01:27:29.773Z,57.40
2023-12-01T01:31:16.226Z,54.40
2023-12-01T01:35:02.426Z,59.50
2023-12-01T01:38:15.085Z,63.30
2023-12-01T01:42:01.464Z,59.80
2023-12-01T01:45:48.000Z,60.10
2023-12-01T01:49:34.215Z,60.80
2023-12-01T01:53:20.824Z,57.90
2023-12-01T01:56:58.967Z,65.90
2023-12-01T02:03:45.416Z,62.10
2023-12-01T02:06:14.924Z,55.40
2023-12-01T02:08:45.135Z,56.70
2023-12-01T02:11:15.024Z,56.80
2023-12-01T02:13:48.627Z,67.10
2023-12-01T02:16:15.569Z,53.30
2023-12-01T02:18:44.078Z,56.00
2023-12-01T02:21:12.846Z,58.50
2023-12-01T02:23:40.369Z,54.20
2023-12-01T02:26:12.101Z,54.60
2023-12-01T02:28:39.054Z,57.90
2023-12-01T02:31:06.781Z,49.40
2023-12-01T02:33:38.349Z,51.40
2023-12-01T02:36:13.233Z,51.00
2023-12-01T02:38:46.932Z,53.30
2023-12-01T02:41:17.334Z,54.50
2023-12-01T02:43:46.110Z,51.30
2023-12-01T02:46:13.514Z,49.00
2023-12-01T02:48:41.417Z,47.60
2023-12-01T02:51:09.407Z,50.40
2023-12-01T02:53:37.916Z,47.00
2023-12-01T02:56:11.010Z,45.70
2023-12-01T02:58:38.414Z,49.70
2023-12-01T03:01:07.650Z,49.90
2023-12-01T03:03:55.398Z,53.70
2023-12-01T03:06:44.757Z,53.20
2023-12-01T03:09:24.193Z,52.90
2023-12-01T03:12:13.355Z,54.70
2023-12-01T03:14:40.450Z,55.80
2023-12-01T03:17:47.935Z,56.30
2023-12-01T03:20:29.858Z,53.70
2023-12-01T03:23:16.308Z,55.90
2023-12-01T03:26:03.003Z,55.00
2023-12-01T03:31:09.360Z,51.90
2023-12-01T03:33:41.596Z,52.70
2023-12-01T03:36:09.480Z,51.20
2023-12-01T03:38:57.358Z,53.70
2023-12-01T03:41:25.426Z,51.00
2023-12-01T03:43:52.060Z,55.60
2023-12-01T03:46:22.764Z,52.70
2023-12-01T03:49:09.344Z,52.10
2023-12-01T03:51:57.830Z,49.60
2023-12-01T03:54:24.666Z,51.10
2023-12-01T03:56:53.778Z,47.90
2023-12-01T03:59:23.864Z,46.20
2023-12-01T04:02:10.586Z,54.70
2023-12-01T04:04:43.370Z,53.80
2023-12-01T04:07:10.565Z,48.40
2023-12-01T04:09:39.758Z,49.50
2023-12-01T04:12:11.505Z,47.30
2023-12-01T04:14:39.308Z,49.60
2023-12-01T04:17:16.044Z,49.90
2023-12-01T04:20:22.124Z,46.00
2023-12-01T04:22:58.398Z,46.80
2023-12-01T04:25:26.643Z,46.90
2023-12-01T04:27:57.537Z,48.20
2023-12-01T04:30:25.485Z,51.10
2023-12-01T04:32:58.679Z,52.00
2023-12-01T04:35:33.490Z,46.10
2023-12-01T04:38:23.937Z,51.20
2023-12-01T04:40:51.464Z,47.80
2023-12-01T04:43:21.118Z,51.10
2023-12-01T04:46:07.787Z,45.90
2023-12-01T04:51:01.941Z,47.00
2023-12-01T04:53:29.123Z,47.10
2023-12-01T04:55:57.773Z,49.00
2023-12-01T04:58:25.237Z,46.90
2023-12-01T05:00:52.597Z,43.10
2023-12-01T05:03:19.332Z,47.50
2023-12-01T05:05:47.320Z,40.70
2023-12-01T05:08:13.944Z,43.40
2023-12-01T05:10:45.697Z,44.00
2023-12-01T05:13:16.906Z,47.50
2023-12-01T05:15:45.196Z,43.90
2023-12-01T05:18:12.580Z,45.30
2023-12-01T05:20:40.511Z,45.50
2023-12-01T05:23:13.061Z,47.60
2023-12-01T05:25:42.146Z,43.90
2023-12-01T05:29:09.364Z,43.90
2023-12-01T05:32:56.547Z,43.30
2023-12-01T05:36:43.777Z,46.80
2023-12-01T05:40:17.763Z,44.20
2023-12-01T05:44:04.612Z,43.80
2023-12-01T05:47:35.812Z,45.50
2023-12-01T05:51:26.818Z,45.60
2023-12-01T05:55:14.102Z,43.30
2023-12-01T05:59:00.571Z,38.10
2023-12-01T06:02:47.497Z,39.40
2023-12-01T06:06:34.595Z,40.90
2023-12-01T06:10:21.573Z,39.80
2023-12-01T06:14:08.308Z,34.50
2023-12-01T06:17:56.230Z,43.00
2023-12-01T06:21:43.311Z,43.60
2023-12-01T06:25:18.633Z,48.80
2023-12-01T06:29:05.330Z,50.70
2023-12-01T06:32:52.177Z,47.30
2023-12-01T06:36:39.285Z,50.40
2023-12-01T06:40:35.673Z,45.30
2023-12-01T06:44:21.682Z,48.40
2023-12-01T06:48:08.619Z,56.70
2023-12-01T06:51:55.470Z,53.90
2023-12-01T06:55:44.780Z,57.70
2023-12-01T06:59:22.348Z,54.50
2023-12-01T07:03:09.873Z,51.00
2023-12-01T07:06:56.256Z,56.30
2023-12-01T07:10:42.918Z,55.60
2023-12-01T07:14:31.025Z,57.00
2023-12-01T07:18:21.192Z,49.50
2023-12-01T07:22:08.031Z,59.10
2023-12-01T07:25:56.176Z,55.90
2023-12-01T07:29:44.956Z,65.50
2023-12-01T07:33:31.913Z,59.70
2023-12-01T07:37:21.896Z,61.40
2023-12-01T07:41:09.139Z,49.00
2023-12-01T07:44:56.517Z,52.00
2023-12-01T07:48:45.323Z,54.50
2023-12-01T07:52:32.259Z,49.40
2023-12-01T07:56:19.067Z,58.40
2023-12-01T08:00:05.928Z,58.30
2023-12-01T08:03:52.941Z,56.30
2023-12-01T08:11:27.341Z,58.40
2023-12-01T08:15:14.889Z,51.40
2023-12-01T08:19:02.568Z,48.20
2023-12-01T08:22:52.647Z,47.50
2023-12-01T08:26:42.700Z,40.00
2023-12-01T08:30:28.663Z,42.10
2023-12-01T08:34:22.455Z,37.30
2023-12-01T08:38:02.919Z,46.80
2023-12-01T08:41:50.478Z,45.80
2023-12-01T08:45:41.610Z,50.10
2023-12-01T08:49:28.126Z,48.10
2023-12-01T08:53:16.153Z,49.50
2023-12-01T08:57:03.278Z,54.60
2023-12-01T09:04:44.074Z,57.60
2023-12-01T09:08:38.338Z,60.00
2023-12-01T09:12:25.746Z,61.20
2023-12-01T09:16:12.960Z,63.80
2023-12-01T09:20:03.047Z,66.20
2023-12-01T09:23:50.394Z,68.00
2023-12-01T09:27:39.282Z,67.00
2023-12-01T09:31:27.811Z,67.70
2023-12-01T09:35:53.492Z,67.70
2023-12-01T09:39:07.824Z,68.70
2023-12-01T09:42:55.650Z,63.80
2023-12-01T09:46:43.085Z,67.80
2023-12-01T09:50:41.616Z,62.00
2023-12-01T09:54:28.962Z,58.20
2023-12-01T09:58:16.312Z,51.70
2023-12-01T10:02:03.707Z,56.00
2023-12-01T10:05:51.999Z,55.20
2023-12-01T10:09:39.458Z,47.00
2023-12-01T10:13:35.550Z,43.80
2023-12-01T10:17:23.128Z,53.10
2023-12-01T10:21:10.449Z,49.80
2023-12-01T10:25:00.908Z,42.90
2023-12-01T10:28:48.060Z,43.60
2023-12-01T10:32:35.406Z,45.70
2023-12-01T10:36:23.517Z,42.60
2023-12-01T10:40:11.197Z,44.10
2023-12-01T10:44:00.004Z,37.00
2023-12-01T10:47:51.325Z,36.10
2023-12-01T10:51:38.524Z,35.30
2023-12-01T10:55:29.431Z,32.50
2023-12-01T10:59:16.884Z,31.20
2023-12-01T11:03:04.936Z,30.20
2023-12-01T11:06:51.936Z,28.40
2023-12-01T11:10:57.154Z,26.70
2023-12-01T11:14:50.109Z,26.90
2023-12-01T11:18:39.003Z,26.30
2023-12-01T11:22:26.004Z,23.50
2023-12-01T11:26:22.500Z,27.50
2023-12-01T11:30:12.564Z,36.60
2023-12-01T11:34:00.135Z,28.10
2023-12-01T11:37:50.597Z,28.70
2023-12-01T11:41:40.564Z,25.30
2023-12-01T11:45:37.462Z,28.50
2023-12-01T11:49:27.375Z,28.50
2023-12-01T11:53:17.406Z,28.90
2023-12-01T11:57:05.023Z,26.50
2023-12-01T12:01:01.579Z,29.50
2023-12-01T12:04:49.302Z,28.90
2023-12-01T12:08:36.483Z,27.00
2023-12-01T12:12:23.817Z,30.60
2023-12-01T12:16:11.538Z,34.10
2023-12-01T12:20:09.510Z,38.40
2023-12-01T12:23:53.024Z,34.40
2023-12-01T12:27:40.547Z,28.70
2023-12-01T12:31:27.975Z,22.30
2023-12-01T12:35:15.347Z,31.60
2023-12-01T12:39:02.591Z,24.70
2023-12-01T12:42:52.842Z,25.70
2023-12-01T12:46:40.386Z,24.70
2023-12-01T12:50:29.176Z,22.50
2023-12-01T12:54:18.120Z,22.40
2023-12-01T12:58:05.012Z,20.70
2023-12-01T13:01:52.355Z,20.80
2023-12-01T13:05:39.987Z,18.80
2023-12-01T13:09:30.149Z,18.40
2023-12-01T13:13:17.339Z,21.90
2023-12-01T13:17:05.041Z,22.50
2023-12-01T13:20:52.532Z,25.40
2023-12-01T13:24:40.012Z,26.50
2023-12-01T13:28:27.235Z,29.70
2023-12-01T13:32:14.907Z,32.90
2023-12-01T13:36:04.096Z,29.40
2023-12-01T13:39:51.131Z,33.60
2023-12-01T13:43:39.125Z,38.80
2023-12-01T13:47:26.197Z,30.00
2023-12-01T13:51:15.947Z,36.70
2023-12-01T13:55:03.311Z,38.30
2023-12-01T13:58:53.035Z,36.90
2023-12-01T14:02:41.816Z,40.70
2023-12-01T14:06:29.197Z,44.70
2023-12-01T14:10:19.285Z,40.70
2023-12-01T14:17:51.588Z,39.60
2023-12-01T14:21:38.794Z,42.60
2023-12-01T14:25:26.237Z,48.60
2023-12-01T14:29:18.103Z,47.20
2023-12-01T14:33:05.471Z,52.70
2023-12-01T14:36:52.920Z,49.10
2023-12-01T14:40:41.979Z,54.50
2023-12-01T14:44:29.169Z,49.80
2023-12-01T14:48:16.909Z,47.90
2023-12-01T14:52:03.973Z,49.20
2023-12-01T14:55:51.966Z,50.70
2023-12-01T14:59:44.167Z,57.00
2023-12-01T15:03:31.572Z,53.20
2023-12-01T15:07:19.682Z,48.30
2023-12-01T15:11:07.329Z,55.70
2023-12-01T15:14:54.697Z,55.20
2023-12-01T15:18:41.961Z,55.70
2023-12-01T15:22:30.472Z,49.50
2023-12-01T15:26:19.421Z,44.70
2023-12-01T15:30:06.689Z,55.00
2023-12-01T15:33:53.768Z,56.90
2023-12-01T15:37:45.668Z,58.50
2023-12-01T15:41:33.001Z,61.60
2023-12-01T15:45:23.491Z,67.10
2023-12-01T15:49:12.916Z,69.30
2023-12-01T15:53:00.309Z,63.10
2023-12-01T15:56:49.147Z,64.30
2023-12-01T16:00:40.222Z,61.10
2023-12-01T16:04:27.121Z,66.40
2023-12-01T16:08:14.435Z,59.80
2023-12-01T16:12:01.724Z,66.80
2023-12-01T16:15:48.934Z,80.50
2023-12-01T16:19:38.757Z,73.30
2023-12-01T16:23:25.793Z,73.10
2023-12-01T16:27:13.085Z,78.80
2023-12-01T16:31:00.576Z,74.40
2023-12-01T16:34:47.838Z,79.80
2023-12-01T16:38:35.185Z,82.70
2023-12-01T16:42:22.361Z,81.70
2023-12-01T16:46:10.955Z,86.40
2023-12-01T16:49:57.925Z,76.70
2023-12-01T16:53:45.252Z,85.80
2023-12-01T16:57:32.405Z,87.10
2023-12-01T17:01:20.942Z,83.60
2023-12-01T17:05:10.876Z,88.30
2023-12-01T17:09:00.092Z,86.00
2023-12-01T17:12:45.295Z,87.20
2023-12-01T17:16:32.259Z,91.30
2023-12-01T17:20:20.573Z,86.50
2023-12-01T17:24:07.872Z,90.50
2023-12-01T17:27:55.147Z,90.80
2023-12-01T17:31:42.388Z,87.80
2023-12-01T17:35:30.014Z,88.50
2023-12-01T17:39:17.381Z,86.80
2023-12-01T17:43:04.767Z,103.30
2023-12-01T17:46:52.988Z,84.50
2023-12-01T17:50:41.579Z,85.20
2023-12-01T17:54:28.869Z,76.30
2023-12-01T17:58:16.319Z,87.60
2023-12-01T18:02:04.687Z,83.90
2023-12-01T18:05:51.728Z,75.20
2023-12-01T18:09:42.295Z,76.90
2023-12-01T18:13:31.974Z,87.80
2023-12-01T18:17:19.143Z,85.70
2023-12-01T18:21:08.207Z,91.30
2023-12-01T18:25:20.990Z,90.80
2023-12-01T18:29:09.621Z,95.50
2023-12-01T18:32:57.037Z,91.80
2023-12-01T18:36:45.345Z,92.60
2023-12-01T18:40:32.214Z,114.60
2023-12-01T18:44:19.385Z,104.30
2023-12-01T18:47:48.688Z,95.50
2023-12-01T18:51:28.764Z,113.20
2023-12-01T18:54:16.750Z,114.20
2023-12-01T18:57:56.598Z,111.20
2023-12-01T19:01:42.932Z,132.70
2023-12-01T19:05:10.659Z,125.80
2023-12-01T19:08:36.933Z,113.60
2023-12-01T19:12:03.940Z,153.60
2023-12-01T19:15:30.366Z,117.80
2023-12-01T19:19:16.996Z,119.20
2023-12-01T19:22:35.441Z,136.20
2023-12-01T19:26:05.885Z,114.80
2023-12-01T19:29:53.187Z,113.20
2023-12-01T19:33:40.702Z,116.20
2023-12-01T19:37:27.696Z,121.50
2023-12-01T19:41:14.613Z,125.80
2023-12-01T19:45:01.503Z,124.90
2023-12-01T19:48:32.932Z,125.50
2023-12-01T19:52:06.216Z,117.40
2023-12-01T19:55:53.218Z,129.70
2023-12-01T19:59:39.636Z,136.00
2023-12-01T20:03:27.010Z,138.00
2023-12-01T20:06:48.593Z,130.90
2023-12-01T20:10:34.805Z,132.40
2023-12-01T20:14:06.732Z,144.10
2023-12-01T20:17:40.642Z,136.70
2023-12-01T20:21:27.039Z,132.60
2023-12-01T20:25:14.261Z,119.60
2023-12-01T20:29:01.362Z,134.50
2023-12-01T20:32:48.740Z,136.10
2023-12-01T20:36:35.118Z,129.50
2023-12-01T20:40:21.408Z,136.30
2023-12-01T20:43:49.476Z,129.80
2023-12-01T20:47:15.943Z,137.90
2023-12-01T20:50:43.862Z,138.50
2023-12-01T20:54:34.872Z,138.40
2023-12-01T20:58:21.971Z,137.20
2023-12-01T21:02:10.800Z,143.70
2023-12-01T21:05:57.286Z,144.70
2023-12-01T21:09:44.050Z,140.60
2023-12-01T21:13:30.939Z,134.10
2023-12-01T21:17:18.281Z,144.00
2023-12-01T21:24:49.468Z,200.20
2023-12-01T21:28:36.845Z,190.00
2023-12-01T21:32:25.209Z,176.20
2023-12-01T21:36:12.275Z,154.20
2023-12-01T21:39:58.899Z,146.70
2023-12-01T21:43:46.400Z,130.90
2023-12-01T21:47:34.891Z,155.60
2023-12-01T21:51:21.818Z,153.40
2023-12-01T21:55:09.863Z,145.00
2023-12-01T21:58:57.095Z,153.30
2023-12-01T22:02:44.218Z,150.70
2023-12-01T22:06:34.005Z,138.60
2023-12-01T22:10:20.886Z,159.60
2023-12-01T22:14:08.332Z,133.00
2023-12-01T22:17:57.112Z,210.60
2023-12-01T22:21:44.139Z,162.30
2023-12-01T22:25:30.801Z,143.90
2023-12-01T22:29:17.578Z,158.70
2023-12-01T22:33:05.206Z,241.30
2023-12-01T22:36:52.342Z,225.00
2023-12-01T22:40:39.300Z,147.70
2023-12-01T22:44:30.587Z,193.10
2023-12-01T22:48:18.179Z,139.80
2023-12-01T22:52:06.738Z,149.60
2023-12-01T22:55:54.157Z,161.30
2023-12-01T22:59:41.412Z,203.70
2023-12-01T23:03:29.388Z,218.90
2023-12-01T23:07:02.133Z,139.10
2023-12-01T23:10:48.522Z,164.20
2023-12-01T23:14:07.999Z,176.50
2023-12-01T23:17:37.006Z,151.20
2023-12-01T23:21:23.643Z,131.30
2023-12-01T23:25:10.614Z,146.00
2023-12-01T23:28:56.113Z,140.40
2023-12-01T23:32:33.219Z,138.60
2023-12-01T23:36:19.933Z,117.80
2023-12-01T23:40:06.130Z,146.10
2023-12-01T23:43:52.564Z,126.70
2023-12-01T23:47:38.704Z,121.50
2023-12-01T23:50:49.684Z,133.10
2023-12-01T23:54:18.974Z,107.60
2023-12-01T23:57:58.269Z,97.10
